createdAt,value
2022-09-29T03:18:59.536Z,4.53
2022-09-29T03:22:09.477Z,6.63
2022-09-29T03:25:19.261Z,5.20
2022-09-29T03:28:29.085Z,6.07
2022-09-29T03:31:41.898Z,4.10
2022-09-29T03:34:53.000Z,5.90
2022-09-29T03:38:03.023Z,5.73
2022-09-29T03:41:12.913Z,5.43
2022-09-29T03:44:22.754Z,6.37
2022-09-29T03:47:32.791Z,6.10
2022-09-29T03:50:44.056Z,10.20
2022-09-29T03:53:55.143Z,4.17
2022-09-29T03:57:04.943Z,4.47
2022-09-29T04:00:15.689Z,4.33
2022-09-29T04:03:25.458Z,7.73
2022-09-29T04:06:36.635Z,5.87
2022-09-29T04:09:49.462Z,5.83
2022-09-29T04:13:00.238Z,3.47
2022-09-29T04:16:10.135Z,4.70
2022-09-29T04:19:20.150Z,7.00
2022-09-29T04:22:31.434Z,5.27
2022-09-29T04:25:41.282Z,5.00
2022-09-29T04:28:51.080Z,6.23
2022-09-29T04:32:00.951Z,3.70
2022-09-29T04:35:11.247Z,4.90
2022-09-29T04:38:22.306Z,4.10
2022-09-29T04:41:34.842Z,5.27
2022-09-29T04:44:44.617Z,9.93
2022-09-29T04:47:54.399Z,9.07
2022-09-29T04:51:05.449Z,9.50
2022-09-29T04:54:17.567Z,8.03
2022-09-29T04:57:27.372Z,11.00
2022-09-29T05:00:37.174Z,8.20
2022-09-29T07:02:47.664Z,19.70
2022-09-29T07:06:18.339Z,19.50
2022-09-29T07:09:27.783Z,30.03
2022-09-29T07:12:37.632Z,22.87
2022-09-29T07:15:48.138Z,14.47
2022-09-29T07:18:59.373Z,22.53
2022-09-29T07:22:34.156Z,15.50
2022-09-29T07:25:52.425Z,14.67
2022-09-29T07:29:02.339Z,8.23
2022-09-29T07:32:22.799Z,10.67
2022-09-29T07:35:39.954Z,9.57
2022-09-29T07:38:51.909Z,11.77
2022-09-29T07:42:01.623Z,10.50
2022-09-29T07:45:11.327Z,9.83
2022-09-29T07:48:20.951Z,11.77
2022-09-29T07:51:32.791Z,12.30
2022-09-29T07:54:42.405Z,8.90
2022-09-29T07:57:52.096Z,12.17
2022-09-29T08:01:04.235Z,11.77
2022-09-29T08:04:13.923Z,8.17
2022-09-29T08:07:24.840Z,14.00
2022-09-29T08:10:43.482Z,9.97
2022-09-29T08:13:54.199Z,7.47
2022-09-29T08:17:03.925Z,8.90
2022-09-29T08:20:13.967Z,8.07
2022-09-29T08:23:25.250Z,6.93
2022-09-29T08:26:43.403Z,5.33
2022-09-29T08:29:54.298Z,8.13
2022-09-29T08:33:04.260Z,10.73
2022-09-29T08:36:15.427Z,6.53
2022-09-29T08:39:26.315Z,6.43
2022-09-29T08:42:48.952Z,5.67
2022-09-29T08:46:03.350Z,8.13
2022-09-29T08:49:29.856Z,10.70
2022-09-29T08:52:51.857Z,8.47
2022-09-29T08:56:05.782Z,4.30
2022-09-29T08:59:15.322Z,5.53
2022-09-29T09:02:55.847Z,6.93
2022-09-29T09:06:18.974Z,5.90
2022-09-29T09:09:47.173Z,5.57
2022-09-29T09:13:14.661Z,5.63
2022-09-29T09:16:34.829Z,6.17
2022-09-29T09:20:01.014Z,5.73
2022-09-29T09:23:21.194Z,6.67
2022-09-29T09:26:38.870Z,5.33
2022-09-29T09:29:54.755Z,5.97
2022-09-29T09:33:21.391Z,6.97
2022-09-29T09:36:40.514Z,5.77
2022-09-29T09:39:57.712Z,8.43
2022-09-29T09:43:13.213Z,6.37
2022-09-29T09:46:33.839Z,5.90
2022-09-29T09:49:50.867Z,5.43
2022-09-29T09:53:04.281Z,6.63
2022-09-29T09:56:23.413Z,5.77
2022-09-29T09:59:44.483Z,5.93
2022-09-29T10:02:57.180Z,5.80
2022-09-29T10:06:08.260Z,5.13
2022-09-29T10:09:18.102Z,4.77
2022-09-29T10:12:27.759Z,5.93
2022-09-29T10:15:43.308Z,5.00
2022-09-29T10:18:54.188Z,5.50
2022-09-29T10:22:14.370Z,7.23
2022-09-29T10:25:25.218Z,6.30
2022-09-29T10:28:42.834Z,5.33
2022-09-29T10:32:08.326Z,8.40
2022-09-29T10:35:24.400Z,4.37
2022-09-29T10:38:34.293Z,8.70
2022-09-29T10:41:54.722Z,6.50
2022-09-29T10:45:14.177Z,6.53
2022-09-29T10:48:24.002Z,5.10
2022-09-29T10:51:34.944Z,4.07
2022-09-29T10:54:55.590Z,6.53
2022-09-29T10:58:43.894Z,4.63
2022-09-29T11:01:52.449Z,5.93
2022-09-29T11:05:05.344Z,8.03
2022-09-29T11:08:16.298Z,4.77
2022-09-29T11:11:28.292Z,5.90
2022-09-29T11:14:42.907Z,6.47
2022-09-29T11:17:53.549Z,6.80
2022-09-29T11:21:30.021Z,6.30
2022-09-29T11:24:57.876Z,5.17
2022-09-29T11:28:25.404Z,6.53
2022-09-29T11:31:46.508Z,6.27
2022-09-29T11:35:08.444Z,5.60
2022-09-29T11:38:32.385Z,5.83
2022-09-29T11:41:59.626Z,5.10
2022-09-29T11:45:15.288Z,6.47
2022-09-29T11:48:48.643Z,4.93
2022-09-29T11:52:10.996Z,5.50
2022-09-29T11:55:35.088Z,6.47
2022-09-29T11:59:00.322Z,6.23
2022-09-29T12:02:37.014Z,6.40
2022-09-29T12:06:02.041Z,4.70
2022-09-29T12:09:28.557Z,6.33
2022-09-29T12:12:47.371Z,4.93
2022-09-29T12:16:01.502Z,5.97
2022-09-29T12:19:14.537Z,5.37
2022-09-29T12:22:24.609Z,7.03
2022-09-29T12:25:38.947Z,7.60
2022-09-29T12:28:55.352Z,6.53
2022-09-29T12:32:17.128Z,6.33
2022-09-29T12:35:35.745Z,5.73
2022-09-29T12:38:48.307Z,4.70
2022-09-29T12:42:18.066Z,6.20
2022-09-29T12:45:35.184Z,9.03
2022-09-29T12:48:56.561Z,5.63
2022-09-29T12:52:16.295Z,5.13
2022-09-29T12:55:32.377Z,4.70
2022-09-29T12:58:46.553Z,6.73
2022-09-29T13:01:58.627Z,4.17
2022-09-29T13:05:30.219Z,5.90
2022-09-29T13:08:58.118Z,6.23
2022-09-29T13:12:23.593Z,6.93
2022-09-29T13:15:52.105Z,7.77
2022-09-29T13:19:55.670Z,5.40
2022-09-29T13:23:24.350Z,9.00
2022-09-29T13:26:49.318Z,5.57
2022-09-29T13:30:06.770Z,6.17
2022-09-29T13:33:23.308Z,5.40
2022-09-29T13:36:36.283Z,8.37
2022-09-29T13:40:01.327Z,6.33
2022-09-29T13:43:40.088Z,5.77
2022-09-29T13:46:49.708Z,6.43
2022-09-29T13:50:24.526Z,3.90
2022-09-29T13:53:37.941Z,5.80
2022-09-29T13:56:51.293Z,4.47
2022-09-29T14:00:07.626Z,5.07
2022-09-29T14:03:28.832Z,12.97
2022-09-29T14:06:48.066Z,8.87
2022-09-29T14:13:15.352Z,8.43
2022-09-29T14:16:33.027Z,4.93
2022-09-29T14:19:50.485Z,3.47
2022-09-29T14:23:03.349Z,4.13
2022-09-29T14:26:42.724Z,2.33
2022-09-29T14:30:02.479Z,3.47
2022-09-29T14:33:16.707Z,2.53
2022-09-29T14:36:28.165Z,1.80
2022-09-29T14:39:41.197Z,7.60
2022-09-29T14:43:03.692Z,11.83
2022-09-29T14:46:45.337Z,4.80
2022-09-29T14:50:20.846Z,5.53
2022-09-29T14:53:47.148Z,1.50
2022-09-29T14:57:08.156Z,1.73
2022-09-29T15:00:20.251Z,1.90
2022-09-29T15:03:35.587Z,2.20
2022-09-29T15:06:48.107Z,3.03
2022-09-29T15:09:59.715Z,4.13
2022-09-29T15:13:20.082Z,3.07
2022-09-29T15:16:41.649Z,2.60
2022-09-29T15:20:01.883Z,3.23
2022-09-29T15:23:31.087Z,3.37
2022-09-29T15:26:41.831Z,4.63
2022-09-29T15:29:56.494Z,3.90
2022-09-29T15:33:19.800Z,3.43
2022-09-29T15:36:36.097Z,3.47
2022-09-29T15:39:51.633Z,3.67
2022-09-29T15:43:01.801Z,3.47
2022-09-29T15:46:19.551Z,3.80
2022-09-29T15:49:30.850Z,4.03
2022-09-29T15:52:41.792Z,3.63
2022-09-29T15:55:53.274Z,5.10
2022-09-29T15:59:06.233Z,4.23
2022-09-29T16:02:21.994Z,4.20
2022-09-29T16:05:34.191Z,4.23
2022-09-29T16:08:50.206Z,8.13
2022-09-29T16:12:07.445Z,3.73
2022-09-29T16:15:25.793Z,7.23
2022-09-29T16:18:42.297Z,4.37
2022-09-29T16:21:53.884Z,4.57
2022-09-29T16:25:21.664Z,5.27
2022-09-29T16:28:31.669Z,3.30
2022-09-29T16:31:43.045Z,4.73
2022-09-29T16:34:52.636Z,7.67
2022-09-29T16:38:03.013Z,3.90
2022-09-29T16:41:27.553Z,4.40
2022-09-29T16:44:44.074Z,4.83
2022-09-29T16:47:53.998Z,6.77
2022-09-29T16:51:27.763Z,3.13
2022-09-29T16:54:44.116Z,6.70
2022-09-29T16:57:58.787Z,4.57
2022-09-29T17:01:12.894Z,8.60
2022-09-29T17:04:23.894Z,14.33
2022-09-29T17:07:40.948Z,8.60
2022-09-29T17:10:52.543Z,9.60
2022-09-29T17:14:08.671Z,8.60
2022-09-29T17:17:23.601Z,9.03
2022-09-29T17:20:35.676Z,6.73
2022-09-29T17:23:47.413Z,7.13
2022-09-29T17:27:09.106Z,7.27
2022-09-29T17:30:25.756Z,5.57
2022-09-29T17:33:39.592Z,6.03
2022-09-29T17:36:52.885Z,4.23
2022-09-29T17:40:05.952Z,4.50
2022-09-29T17:43:18.986Z,5.33
2022-09-29T17:46:31.538Z,7.27
2022-09-29T17:49:43.246Z,6.57
2022-09-29T17:52:55.291Z,3.87
2022-09-29T17:56:07.421Z,5.57
2022-09-29T17:59:18.614Z,4.07
2022-09-29T18:02:31.545Z,4.50
2022-09-29T18:05:45.794Z,2.87
2022-09-29T18:09:02.279Z,3.90
2022-09-29T18:12:15.043Z,4.80
2022-09-29T18:15:34.671Z,4.37
2022-09-29T18:18:48.494Z,5.90
2022-09-29T18:22:06.640Z,4.47
2022-09-29T18:25:26.002Z,7.87
2022-09-29T18:28:39.739Z,6.90
2022-09-29T18:32:09.870Z,5.67
2022-09-29T18:35:25.413Z,11.13
2022-09-29T18:38:40.409Z,8.13
2022-09-29T18:41:56.908Z,4.93
2022-09-29T18:45:17.489Z,8.40
2022-09-29T18:48:31.102Z,16.30
2022-09-29T18:51:44.998Z,9.80
2022-09-29T18:54:59.741Z,6.90
2022-09-29T18:58:14.904Z,8.07
2022-09-29T19:01:28.824Z,81.67
2022-09-29T19:04:43.147Z,41.00
2022-09-29T19:08:00.574Z,64.83
2022-09-29T19:11:19.357Z,7.13
2022-09-29T19:14:35.712Z,40.57
2022-09-29T19:17:49.106Z,43.33
2022-09-29T19:21:01.678Z,37.17
2022-09-29T19:24:15.517Z,132.87
2022-09-29T19:27:32.708Z,37.27
2022-09-29T19:30:45.167Z,46.67
2022-09-29T19:33:58.100Z,286.03
2022-09-29T19:37:09.065Z,366.47
2022-09-29T19:40:24.516Z,438.60
2022-09-29T19:43:36.105Z,42.53
2022-09-29T19:46:46.467Z,85.53
2022-09-29T19:50:13.558Z,160.03
